createdAt,value
2022-11-28T00:29:37.634Z,1002.16
2022-11-28T00:30:17.997Z,1002.18
2022-11-28T00:30:58.466Z,1002.1
2022-11-28T00:31:38.997Z,1002.03
2022-11-28T00:32:19.417Z,1002.12
2022-11-28T00:32:59.957Z,1002.05
2022-11-28T00:33:40.442Z,1002.07
2022-11-28T00:34:20.931Z,1002.05
2022-11-28T00:35:01.392Z,1002.04
2022-11-28T00:35:41.836Z,1001.99
2022-11-28T00:36:22.336Z,1001.94
2022-11-28T00:37:02.812Z,1002
2022-11-28T00:37:43.260Z,1001.99
2022-11-28T00:38:23.749Z,1002
2022-11-28T00:39:04.288Z,1001.98
2022-11-28T00:39:44.727Z,1002.03
2022-11-28T00:40:25.243Z,1001.98
2022-11-28T00:41:05.704Z,1001.98
2022-11-28T00:41:46.168Z,1001.98
2022-11-28T00:42:26.625Z,1001.96
2022-11-28T00:43:07.179Z,1001.94
2022-11-28T00:44:28.123Z,1001.98
2022-11-28T00:45:08.701Z,1001.96
2022-11-28T00:45:49.099Z,1001.97
2022-11-28T00:46:29.555Z,1001.95
2022-11-28T00:47:09.988Z,1001.94
2022-11-28T00:47:50.449Z,1001.9
2022-11-28T00:48:30.957Z,1001.91
2022-11-28T00:49:11.440Z,1001.95
2022-11-28T00:49:51.908Z,1002
2022-11-28T00:50:32.397Z,1001.95
2022-11-28T00:51:12.944Z,1001.96
2022-11-28T00:51:53.390Z,1001.95
2022-11-28T00:52:33.871Z,1001.95
2022-11-28T00:53:14.390Z,1001.97
2022-11-28T00:53:54.884Z,1001.96
2022-11-28T00:54:35.357Z,1001.99
2022-11-28T00:55:15.846Z,1001.96
2022-11-28T00:55:56.334Z,1002.02
2022-11-28T00:56:36.811Z,1002.01
2022-11-28T00:57:17.324Z,1002.02
2022-11-28T00:57:57.795Z,1002.04
2022-11-28T00:58:38.252Z,1001.99
2022-11-28T00:59:18.751Z,1002
2022-11-28T00:59:59.244Z,1001.99
2022-11-28T01:00:39.925Z,1001.98
2022-11-28T01:01:20.342Z,1002
2022-11-28T01:02:00.764Z,1001.94
2022-11-28T01:02:41.248Z,1001.96
2022-11-28T01:03:21.642Z,1001.85
2022-11-28T01:04:42.927Z,1001.83
2022-11-28T01:05:23.111Z,1001.94
2022-11-28T01:06:03.563Z,1001.88
2022-11-28T01:06:44.067Z,1001.83
2022-11-28T01:07:24.583Z,1001.87
2022-11-28T01:08:05.014Z,1001.89
2022-11-28T01:08:45.522Z,1001.8
2022-11-28T01:09:26.015Z,1001.84
2022-11-28T01:10:06.520Z,1001.81
2022-11-28T01:10:47.027Z,1001.9
2022-11-28T01:12:07.997Z,1001.85
2022-11-28T01:12:48.496Z,1001.86
2022-11-28T01:13:28.965Z,1001.85
2022-11-28T01:14:09.472Z,1001.82
2022-11-28T01:14:49.999Z,1001.88
2022-11-28T01:15:30.463Z,1001.81
2022-11-28T01:16:11.162Z,1001.8
2022-11-28T01:16:51.524Z,1001.81
2022-11-28T01:17:31.968Z,1001.82
2022-11-28T01:18:12.472Z,1001.79
2022-11-28T01:18:52.974Z,1001.84
2022-11-28T01:19:33.414Z,1001.7
2022-11-28T01:20:13.899Z,1001.77
2022-11-28T01:20:54.384Z,1001.65
2022-11-28T01:21:34.887Z,1001.81
2022-11-28T01:22:15.361Z,1001.72
2022-11-28T01:22:55.842Z,1001.62
2022-11-28T01:23:36.342Z,1001.65
2022-11-28T01:24:16.810Z,1001.61
2022-11-28T01:24:57.301Z,1001.63
2022-11-28T01:25:37.791Z,1001.64
2022-11-28T01:26:18.252Z,1001.71
2022-11-28T01:26:58.750Z,1001.66
2022-11-28T01:30:12.442Z,1001.71
2022-11-28T01:30:52.932Z,1001.74
2022-11-28T01:31:33.626Z,1001.64
2022-11-28T01:32:13.909Z,1001.69
2022-11-28T01:32:54.383Z,1001.63
2022-11-28T01:33:34.875Z,1001.66
2022-11-28T01:34:15.374Z,1001.72
2022-11-28T01:34:55.827Z,1001.66
2022-11-28T01:35:36.329Z,1001.62
2022-11-28T01:36:16.875Z,1001.62
2022-11-28T01:36:57.341Z,1001.56
2022-11-28T01:37:37.856Z,1001.6
2022-11-28T01:38:18.354Z,1001.57
2022-11-28T01:38:58.840Z,1001.58
2022-11-28T01:39:39.315Z,1001.59
2022-11-28T01:40:19.841Z,1001.58
2022-11-28T01:41:00.332Z,1001.57
2022-11-28T01:41:40.803Z,1001.71
2022-11-28T01:42:21.280Z,1001.6
2022-11-28T01:43:01.757Z,1001.53
2022-11-28T01:43:42.256Z,1001.53
2022-11-28T01:44:22.721Z,1001.49
2022-11-28T01:45:03.247Z,1001.44
2022-11-28T01:45:43.716Z,1001.44
2022-11-28T01:46:24.243Z,1001.42
2022-11-28T01:47:04.848Z,1001.47
2022-11-28T01:47:45.160Z,1001.46
2022-11-28T01:48:25.667Z,1001.46
2022-11-28T01:49:06.150Z,1001.47
2022-11-28T01:49:46.653Z,1001.49
2022-11-28T01:50:27.130Z,1001.48
2022-11-28T01:51:07.606Z,1001.46
2022-11-28T01:51:48.135Z,1001.41
2022-11-28T01:52:28.642Z,1001.45
2022-11-28T01:53:09.126Z,1001.45
2022-11-28T01:53:49.602Z,1001.41
2022-11-28T01:54:30.077Z,1001.4
2022-11-28T01:55:10.583Z,1001.4
2022-11-28T01:55:51.069Z,1001.37
2022-11-28T01:56:31.555Z,1001.31
2022-11-28T01:57:12.044Z,1001.35
2022-11-28T01:57:52.541Z,1001.33
2022-11-28T01:58:33.010Z,1001.32
2022-11-28T01:59:13.499Z,1001.32
2022-11-28T01:59:53.981Z,1001.37
2022-11-28T02:00:34.521Z,1001.32
2022-11-28T02:01:15.089Z,1001.29
2022-11-28T02:02:36.167Z,1001.35
2022-11-28T02:03:16.438Z,1001.32
2022-11-28T02:03:56.899Z,1001.36
2022-11-28T02:04:37.422Z,1001.36
2022-11-28T02:05:17.915Z,1001.41
2022-11-28T02:05:58.431Z,1001.35
2022-11-28T02:06:38.969Z,1001.39
2022-11-28T02:07:19.509Z,1001.42
2022-11-28T02:07:59.953Z,1001.38
2022-11-28T02:08:40.387Z,1001.35
2022-11-28T02:09:20.856Z,1001.37
2022-11-28T02:10:01.358Z,1001.34
2022-11-28T02:10:41.839Z,1001.31
2022-11-28T02:11:22.354Z,1001.29
2022-11-28T02:12:43.332Z,1001.28
2022-11-28T02:13:23.855Z,1001.33
2022-11-28T02:14:04.359Z,1001.25
2022-11-28T02:14:44.866Z,1001.31
2022-11-28T02:15:25.355Z,1001.31
2022-11-28T02:16:05.896Z,1001.31
2022-11-28T02:16:46.393Z,1001.33
2022-11-28T02:17:26.847Z,1001.29
2022-11-28T02:18:07.518Z,1001.28
2022-11-28T02:18:50.513Z,1001.28
2022-11-28T02:19:28.319Z,1001.26
2022-11-28T02:20:08.796Z,1001.23
2022-11-28T02:20:49.271Z,1001.21
2022-11-28T02:21:29.782Z,1001.22
2022-11-28T02:22:10.278Z,1001.21
2022-11-28T02:22:50.752Z,1001.23
2022-11-28T02:23:31.268Z,1001.2
2022-11-28T02:24:11.764Z,1001.21
2022-11-28T02:24:52.226Z,1001.22
2022-11-28T02:25:32.736Z,1001.25
2022-11-28T02:26:13.245Z,1001.22
2022-11-28T02:26:53.721Z,1001.2
2022-11-28T02:27:34.220Z,1001.23
2022-11-28T02:28:14.718Z,1001.22
2022-11-28T02:30:13.056Z,1001.28
2022-11-28T02:30:53.308Z,1001.28
2022-11-28T02:31:33.902Z,1001.3
2022-11-28T02:32:14.245Z,1001.27
2022-11-28T02:32:54.761Z,1001.27
2022-11-28T02:33:35.352Z,1001.28
2022-11-28T02:34:15.697Z,1001.29
2022-11-28T02:34:56.176Z,1001.25
2022-11-28T02:35:36.675Z,1001.23
2022-11-28T02:36:17.162Z,1001.21
2022-11-28T02:36:57.652Z,1001.16
2022-11-28T02:37:38.834Z,1001.16
2022-11-28T02:38:19.319Z,1001.19
2022-11-28T02:38:59.827Z,1001.14
2022-11-28T02:39:40.323Z,1001.19
2022-11-28T02:40:20.831Z,1001.15
2022-11-28T02:41:01.280Z,1001.18
2022-11-28T02:41:41.755Z,1001.12
2022-11-28T02:42:22.244Z,1001.09
2022-11-28T02:43:02.775Z,1001.08
2022-11-28T02:43:43.241Z,1001.01
2022-11-28T02:44:23.737Z,1001
2022-11-28T02:45:04.204Z,1000.97
2022-11-28T02:45:44.689Z,1000.99
2022-11-28T02:46:25.205Z,1001
2022-11-28T02:47:05.765Z,1001
2022-11-28T02:47:46.121Z,1001.02
2022-11-28T02:48:26.601Z,1001.08
2022-11-28T02:49:07.221Z,1001.07
2022-11-28T02:52:51.779Z,1001.1
2022-11-28T02:53:32.460Z,1001.07
2022-11-28T02:54:12.858Z,1001.12
2022-11-28T02:54:53.351Z,1001.08
2022-11-28T02:55:33.847Z,1001.11
2022-11-28T02:56:54.890Z,1001.2
2022-11-28T02:57:35.352Z,1001.22
2022-11-28T02:58:15.897Z,1001.24
2022-11-28T02:58:56.392Z,1001.18
2022-11-28T02:59:36.919Z,1001.16
2022-11-28T03:00:17.906Z,1001.17
2022-11-28T03:00:57.906Z,1001.15
2022-11-28T03:01:38.408Z,1001.1
2022-11-28T03:02:18.902Z,1001.11
2022-11-28T03:02:59.333Z,1001.15
2022-11-28T03:03:39.794Z,1001.13
2022-11-28T03:04:20.418Z,1001.16
2022-11-28T03:05:00.842Z,1001.14
2022-11-28T03:05:41.322Z,1001.1
2022-11-28T03:06:21.863Z,1001.09
2022-11-28T03:07:02.360Z,1001.14
2022-11-28T03:07:42.966Z,1001.11
2022-11-28T03:08:23.344Z,1001.16
2022-11-28T03:09:03.835Z,1001.04
2022-11-28T03:09:44.331Z,1001.04
2022-11-28T03:10:24.860Z,1001.02
2022-11-28T03:11:05.299Z,1000.98
2022-11-28T03:12:26.316Z,1000.99
2022-11-28T03:13:06.786Z,1000.95
2022-11-28T03:13:47.254Z,1000.99
2022-11-28T03:14:27.724Z,1000.96
2022-11-28T03:15:08.237Z,1000.94
2022-11-28T03:15:48.761Z,1000.97
2022-11-28T03:16:29.355Z,1001.01
2022-11-28T03:17:09.758Z,1001.04
2022-11-28T03:17:50.207Z,1000.97
2022-11-28T03:18:30.680Z,1000.94
2022-11-28T03:19:11.191Z,1000.91
2022-11-28T03:19:51.773Z,1000.93
2022-11-28T03:20:32.152Z,1000.85
2022-11-28T03:21:12.661Z,1000.84
2022-11-28T03:21:53.139Z,1000.83
2022-11-28T03:22:33.682Z,1000.84
2022-11-28T03:23:14.212Z,1000.82
2022-11-28T03:23:54.691Z,1000.82
2022-11-28T03:25:15.687Z,1000.79
2022-11-28T03:25:56.191Z,1000.7
2022-11-28T03:26:36.691Z,1000.72
2022-11-28T03:27:17.137Z,1000.71
2022-11-28T03:27:57.638Z,1000.71
2022-11-28T03:28:42.131Z,1000.69
2022-11-28T03:29:18.589Z,1000.71
2022-11-28T03:29:59.075Z,1000.64
2022-11-28T03:30:39.569Z,1000.65
2022-11-28T03:31:20.148Z,1000.68
2022-11-28T03:32:00.586Z,1000.66
2022-11-28T03:32:41.072Z,1000.71
2022-11-28T03:33:21.522Z,1000.69
2022-11-28T03:34:02.012Z,1000.7
2022-11-28T03:34:42.712Z,1000.66
2022-11-28T03:35:23.104Z,1000.7
2022-11-28T03:36:03.509Z,1000.66
2022-11-28T03:36:44.020Z,1000.73
2022-11-28T03:38:05.029Z,1000.67
2022-11-28T03:38:45.502Z,1000.65
2022-11-28T03:39:26.082Z,1000.66
2022-11-28T03:40:06.541Z,1000.67
2022-11-28T03:40:47.020Z,1000.65
2022-11-28T03:41:27.473Z,1000.69
2022-11-28T03:42:07.996Z,1000.64
2022-11-28T03:42:48.446Z,1000.67
2022-11-28T03:43:28.930Z,1000.63
2022-11-28T03:44:09.403Z,1000.66
2022-11-28T03:44:49.891Z,1000.67
2022-11-28T03:45:30.365Z,1000.63
2022-11-28T03:46:10.856Z,1000.7
2022-11-28T03:46:51.409Z,1000.69
2022-11-28T03:47:31.799Z,1000.68
2022-11-28T03:48:12.311Z,1000.65
2022-11-28T03:48:52.800Z,1000.66
2022-11-28T03:49:33.315Z,1000.65
2022-11-28T03:50:54.348Z,1000.72
2022-11-28T03:51:34.795Z,1000.75
2022-11-28T03:52:15.329Z,1000.73
2022-11-28T03:52:55.765Z,1000.74
2022-11-28T03:53:36.261Z,1000.73
2022-11-28T03:54:16.695Z,1000.69
2022-11-28T03:54:57.217Z,1000.71
2022-11-28T03:55:37.730Z,1000.7
2022-11-28T03:56:18.234Z,1000.68
2022-11-28T03:56:58.693Z,1000.63
2022-11-28T03:57:39.290Z,1000.65
2022-11-28T03:58:21.497Z,1000.67
2022-11-28T03:59:02.053Z,1000.69
2022-11-28T03:59:42.487Z,1000.61
2022-11-28T04:01:03.568Z,1000.6
2022-11-28T04:01:44.008Z,1000.58
2022-11-28T04:02:24.464Z,1000.54
2022-11-28T04:03:05.072Z,1000.53
2022-11-28T04:03:45.467Z,1000.59
2022-11-28T04:04:25.983Z,1000.62
2022-11-28T04:05:06.446Z,1000.58
2022-11-28T04:05:46.913Z,1000.58
2022-11-28T04:06:27.504Z,1000.59
2022-11-28T04:07:07.867Z,1000.52
2022-11-28T04:07:48.383Z,1000.58
2022-11-28T04:08:28.866Z,1000.56
2022-11-28T04:09:14.129Z,1000.56
2022-11-28T04:09:49.830Z,1000.59
2022-11-28T04:10:30.423Z,1000.55
2022-11-28T04:11:10.851Z,1000.57
2022-11-28T04:11:51.330Z,1000.52
2022-11-28T04:12:31.813Z,1000.58
2022-11-28T04:13:12.390Z,1000.5
2022-11-28T04:13:52.879Z,1000.49
2022-11-28T04:14:33.358Z,1000.52
2022-11-28T04:15:13.871Z,1000.49
2022-11-28T04:15:54.350Z,1000.53
2022-11-28T04:16:34.923Z,1000.48
2022-11-28T04:17:15.391Z,1000.49
2022-11-28T04:17:55.849Z,1000.57
2022-11-28T04:18:36.326Z,1000.55
2022-11-28T04:19:16.825Z,1000.57
2022-11-28T04:19:57.288Z,1000.67
2022-11-28T04:20:37.775Z,1000.64
2022-11-28T04:21:18.302Z,1000.7
2022-11-28T04:21:58.954Z,1000.64
2022-11-28T04:22:39.332Z,1000.68
2022-11-28T04:23:19.828Z,1000.62
2022-11-28T04:24:41.077Z,1000.63
2022-11-28T04:25:21.291Z,1000.67
2022-11-28T04:26:01.800Z,1000.66
2022-11-28T04:26:42.278Z,1000.73
2022-11-28T04:27:22.761Z,1000.73
2022-11-28T04:28:03.254Z,1000.78
2022-11-28T04:28:43.760Z,1000.79
2022-11-28T04:29:24.201Z,1000.81
2022-11-28T04:30:04.725Z,1000.78
2022-11-28T04:30:45.220Z,1000.8
2022-11-28T04:31:25.758Z,1000.77
2022-11-28T04:32:06.221Z,1000.79
2022-11-28T04:32:46.758Z,1000.82
2022-11-28T04:33:27.235Z,1000.81
2022-11-28T04:34:07.757Z,1000.84
2022-11-28T04:34:48.266Z,1000.83
2022-11-28T04:35:28.712Z,1000.86
2022-11-28T04:36:09.205Z,1000.84
2022-11-28T04:36:49.709Z,1000.82
2022-11-28T04:37:30.381Z,1000.79
2022-11-28T04:38:10.686Z,1000.85
2022-11-28T04:38:51.193Z,1000.87
2022-11-28T04:39:31.683Z,1000.85
2022-11-28T04:40:12.209Z,1000.94
2022-11-28T04:40:52.684Z,1000.93
2022-11-28T04:42:13.716Z,1001.01
2022-11-28T04:42:54.215Z,1000.98
2022-11-28T04:43:34.708Z,1000.98
2022-11-28T04:44:15.275Z,1000.99
2022-11-28T04:44:55.711Z,1000.98
2022-11-28T04:45:36.236Z,1000.97
2022-11-28T04:46:16.790Z,1000.99
2022-11-28T04:46:57.215Z,1000.96
2022-11-28T04:47:37.715Z,1001
2022-11-28T04:48:18.209Z,1000.98
2022-11-28T04:48:58.691Z,1000.99
2022-11-28T04:49:39.173Z,1001
2022-11-28T04:50:19.681Z,1001
2022-11-28T04:51:00.325Z,1001.03
2022-11-28T04:52:21.397Z,1000.97
2022-11-28T04:53:02.013Z,1001
2022-11-28T04:53:42.327Z,1000.98
2022-11-28T04:54:22.861Z,1000.96
2022-11-28T04:55:03.319Z,1000.95
2022-11-28T04:55:43.820Z,1000.92
2022-11-28T04:56:24.328Z,1000.94
2022-11-28T04:57:04.835Z,1000.94
2022-11-28T04:57:45.307Z,1000.92
2022-11-28T04:58:25.848Z,1000.94
2022-11-28T04:59:06.334Z,1000.98
2022-11-28T04:59:46.851Z,1000.93
2022-11-28T05:00:27.383Z,1001
2022-11-28T05:01:07.868Z,1000.99
2022-11-28T05:01:48.373Z,1000.97
2022-11-28T05:02:28.947Z,1001.03
2022-11-28T05:03:09.392Z,1000.97
2022-11-28T05:03:49.904Z,1000.95
2022-11-28T05:04:30.345Z,1000.97
2022-11-28T05:05:10.841Z,1000.91
2022-11-28T05:05:51.430Z,1000.89
2022-11-28T05:06:31.900Z,1000.92
2022-11-28T05:07:12.574Z,1000.94
2022-11-28T05:07:53.015Z,1000.93
2022-11-28T05:08:33.489Z,1000.96
2022-11-28T05:09:13.917Z,1000.92
2022-11-28T05:09:54.379Z,1000.94
2022-11-28T05:10:34.860Z,1000.98
2022-11-28T05:11:15.347Z,1001
2022-11-28T05:11:55.866Z,1000.99
2022-11-28T05:12:36.343Z,1000.96
2022-11-28T05:13:16.890Z,1000.99
2022-11-28T05:13:57.351Z,1001
2022-11-28T05:14:37.947Z,1000.97
2022-11-28T05:15:18.304Z,1001
2022-11-28T05:15:58.824Z,1000.98
2022-11-28T05:16:39.391Z,1000.98
2022-11-28T05:17:19.900Z,1000.95
2022-11-28T05:18:00.376Z,1000.95
2022-11-28T05:18:40.853Z,1000.97
2022-11-28T05:19:21.361Z,1001
2022-11-28T05:20:01.825Z,1001
2022-11-28T05:20:42.364Z,1001.02
2022-11-28T05:21:22.876Z,1001.03
2022-11-28T05:22:03.329Z,1001.06
2022-11-28T05:22:43.837Z,1001.06
2022-11-28T05:23:24.337Z,1001.02
2022-11-28T05:24:04.969Z,1001.05
2022-11-28T05:24:45.577Z,1001.1
2022-11-28T05:25:25.825Z,1001.06
2022-11-28T05:26:06.322Z,1001.12
2022-11-28T05:26:46.786Z,1001.09
2022-11-28T05:27:27.281Z,1001.09
2022-11-28T05:28:07.782Z,1001.11
2022-11-28T05:28:48.327Z,1001.11
2022-11-28T05:29:28.812Z,1001.1
2022-11-28T05:30:09.355Z,1001.06
2022-11-28T05:30:49.826Z,1001.11
2022-11-28T05:31:30.408Z,1001.08
2022-11-28T05:32:10.868Z,1001.06
2022-11-28T05:32:51.369Z,1001.04
2022-11-28T05:33:31.871Z,1001.04
2022-11-28T05:34:12.367Z,1000.97
2022-11-28T05:34:52.883Z,1000.96
2022-11-28T05:35:33.424Z,1000.99
2022-11-28T05:36:13.897Z,1000.99
2022-11-28T05:36:54.432Z,1000.94
2022-11-28T05:37:34.886Z,1001
2022-11-28T05:38:15.376Z,1000.97
2022-11-28T05:38:55.888Z,1000.98
2022-11-28T05:39:36.545Z,1000.98
2022-11-28T05:40:16.875Z,1000.94
2022-11-28T05:40:57.404Z,1000.96
2022-11-28T05:41:37.857Z,1000.95
2022-11-28T05:42:18.400Z,1000.93
2022-11-28T05:42:58.888Z,1000.94
2022-11-28T05:43:39.393Z,1000.92
2022-11-28T05:44:24.070Z,1000.92
2022-11-28T05:45:00.419Z,1000.93
2022-11-28T05:45:40.951Z,1000.9
2022-11-28T05:46:21.449Z,1000.92
2022-11-28T05:47:01.889Z,1000.95
2022-11-28T05:47:42.403Z,1000.93
2022-11-28T05:48:22.908Z,1000.93
2022-11-28T05:49:03.445Z,1000.96
2022-11-28T05:49:44.082Z,1000.93
2022-11-28T05:50:24.348Z,1000.92
2022-11-28T05:51:04.803Z,1000.94
2022-11-28T05:51:45.309Z,1000.93
2022-11-28T06:32:09.832Z,1000.73
2022-11-28T06:32:50.122Z,1000.71
2022-11-28T06:33:30.597Z,1000.7
2022-11-28T06:34:11.114Z,1000.75
2022-11-28T06:34:51.551Z,1000.72
2022-11-28T06:35:32.043Z,1000.74
2022-11-28T06:36:12.562Z,1000.82
2022-11-28T06:36:53.004Z,1000.77
2022-11-28T06:37:33.501Z,1000.79
2022-11-28T06:38:14.468Z,1000.79
2022-11-28T06:38:54.566Z,1000.79
2022-11-28T06:39:35.100Z,1000.78
2022-11-28T06:40:15.568Z,1000.8
2022-11-28T06:40:56.064Z,1000.86
2022-11-28T06:41:36.563Z,1000.8
2022-11-28T06:42:17.061Z,1000.81
2022-11-28T06:42:57.654Z,1000.83
2022-11-28T06:44:55.284Z,1000.84
2022-11-28T06:45:40.450Z,1000.83
2022-11-28T06:46:20.943Z,1000.86
2022-11-28T06:47:02.124Z,1000.8
2022-11-28T06:47:42.720Z,1000.83
2022-11-28T06:48:23.156Z,1000.82
2022-11-28T06:49:03.762Z,1000.84
2022-11-28T06:49:44.463Z,1000.82
2022-11-28T06:50:24.709Z,1000.86
2022-11-28T06:51:05.249Z,1000.88
2022-11-28T06:51:45.761Z,1000.89
2022-11-28T06:52:26.278Z,1000.87
2022-11-28T06:53:06.765Z,1000.9
2022-11-28T06:53:47.309Z,1000.88
2022-11-28T06:54:27.868Z,1000.99
2022-11-28T06:55:08.398Z,1000.9
2022-11-28T06:55:48.914Z,1000.93
2022-11-28T06:56:29.395Z,1000.98
2022-11-28T06:59:59.896Z,1001
2022-11-28T07:00:40.290Z,1001.02
2022-11-28T07:01:20.793Z,1001.03
2022-11-28T07:02:05.809Z,1000.99
2022-11-28T07:02:42.017Z,1001
2022-11-28T07:04:03.678Z,1001.04
2022-11-28T07:04:46.482Z,1000.95
2022-11-28T07:05:27.059Z,1001.02
2022-11-28T07:06:07.692Z,1001.03
2022-11-28T07:06:48.164Z,1001.03
2022-11-28T07:09:46.875Z,1001.05
2022-11-28T07:10:28.428Z,1001.05
2022-11-28T07:11:09.019Z,1001.05
2022-11-28T07:11:49.604Z,1001.07
2022-11-28T07:12:30.106Z,1001.02
2022-11-28T07:13:10.658Z,1001.12
2022-11-28T07:13:51.175Z,1001
2022-11-28T07:14:31.723Z,1001.04
2022-11-28T07:15:12.982Z,1001
2022-11-28T07:15:53.870Z,1001.03
2022-11-28T07:16:34.444Z,1000.96
2022-11-28T07:17:14.956Z,1001.02
2022-11-28T07:17:55.528Z,1001.02
2022-11-28T07:18:36.096Z,1001.02
2022-11-28T07:19:16.512Z,1001.06
2022-11-28T07:19:57.091Z,1000.99
2022-11-28T07:20:37.596Z,1000.99
2022-11-28T07:21:18.172Z,1000.96
2022-11-28T07:21:58.664Z,1000.95
2022-11-28T07:22:39.163Z,1000.94
2022-11-28T07:23:20.840Z,1000.98
2022-11-28T07:24:01.666Z,1000.97
2022-11-28T07:27:01.369Z,1000.99
2022-11-28T07:30:01.336Z,1001.08
2022-11-28T07:32:41.106Z,1001.09
2022-11-28T07:33:21.579Z,1001.04
2022-11-28T07:34:02.223Z,1001.03
2022-11-28T07:34:44.610Z,1001.06
2022-11-28T07:35:23.152Z,1001.01
2022-11-28T07:36:44.334Z,1000.99
2022-11-28T07:37:24.851Z,1001
2022-11-28T07:38:05.384Z,1001.04
2022-11-28T07:38:45.950Z,1001.01
2022-11-28T07:39:26.465Z,1001.05
2022-11-28T07:40:07.024Z,1000.98
2022-11-28T07:40:47.635Z,1000.99
2022-11-28T07:41:28.160Z,1001.01
2022-11-28T07:42:09.803Z,1000.97
2022-11-28T07:42:50.433Z,1000.97
2022-11-28T07:43:31.061Z,1001
2022-11-28T07:44:11.973Z,1001.03
2022-11-28T07:44:52.648Z,1000.97
2022-11-28T07:45:53.675Z,1000.99
2022-11-28T07:49:07.196Z,1001.05
2022-11-28T07:49:48.337Z,1001.07
2022-11-28T07:50:28.813Z,1001.05
2022-11-28T07:51:09.464Z,1001.09
2022-11-28T07:51:50.025Z,1001.08
2022-11-28T07:52:30.572Z,1001.04
2022-11-28T07:53:11.103Z,1001.06
2022-11-28T07:53:51.635Z,1001.04
2022-11-28T07:54:32.195Z,1001.06
2022-11-28T07:55:12.751Z,1001.04
2022-11-28T07:55:54.296Z,1001.06
2022-11-28T07:57:04.335Z,1001.09
2022-11-28T07:57:15.430Z,1001.08
2022-11-28T07:57:55.977Z,1001.1
2022-11-28T07:58:36.581Z,1001.14
2022-11-28T07:59:17.028Z,1001.15
2022-11-28T07:59:59.082Z,1001.09
2022-11-28T08:00:39.615Z,1001.09
2022-11-28T08:02:00.713Z,1001.1
2022-11-28T08:02:41.913Z,1001.08
2022-11-28T08:03:22.482Z,1001.05
2022-11-28T08:04:03.132Z,1001.05
2022-11-28T08:04:48.554Z,1001.06
2022-11-28T08:05:24.222Z,1001.04
2022-11-28T08:06:05.480Z,1001.13
2022-11-28T08:06:45.986Z,1001.1
2022-11-28T08:07:26.616Z,1001.09
2022-11-28T08:08:07.328Z,1001.06
2022-11-28T08:09:28.917Z,1001.1
2022-11-28T08:10:09.426Z,1001.1
2022-11-28T08:10:49.976Z,1001.12
2022-11-28T08:11:30.603Z,1001.05
2022-11-28T08:12:11.096Z,1001.05
2022-11-28T08:12:51.775Z,1001.08
2022-11-28T08:13:32.269Z,1001.05
2022-11-28T08:14:13.742Z,1001.05
2022-11-28T08:14:53.467Z,1001.05
2022-11-28T08:15:34.022Z,1001.07
2022-11-28T08:16:14.580Z,1001.08
2022-11-28T08:16:55.278Z,1001.15
2022-11-28T08:17:35.755Z,1001.08
2022-11-28T08:18:16.410Z,1001.14
2022-11-28T08:18:56.980Z,1001.12
2022-11-28T08:19:37.534Z,1001.14
2022-11-28T08:20:18.137Z,1001.15
2022-11-28T08:20:58.605Z,1001.13
2022-11-28T08:21:39.194Z,1001.14
2022-11-28T08:22:19.799Z,1001.13
2022-11-28T08:23:00.387Z,1001.15
2022-11-28T08:23:41.844Z,1001.12
2022-11-28T08:24:22.410Z,1001.13
2022-11-28T08:25:02.973Z,1001.12
2022-11-28T08:25:43.490Z,1001.14
2022-11-28T08:26:28.873Z,1001.12
2022-11-28T08:27:04.732Z,1001.13
2022-11-28T08:27:45.262Z,1001.09
2022-11-28T08:28:25.884Z,1001.1
2022-11-28T08:29:50.451Z,1001.11
2022-11-28T08:30:29.134Z,1001.08
2022-11-28T08:31:09.804Z,1001.11
2022-11-28T08:31:50.261Z,1001.1
2022-11-28T08:32:30.926Z,1001.14
2022-11-28T08:33:11.436Z,1001.15
2022-11-28T08:33:52.210Z,1001.16
2022-11-28T08:34:32.662Z,1001.15
2022-11-28T08:35:13.460Z,1001.19
2022-11-28T08:35:53.929Z,1001.16
2022-11-28T08:36:34.411Z,1001.16
2022-11-28T08:37:15.657Z,1001.15
2022-11-28T08:39:28.772Z,1001.17
2022-11-28T08:39:53.881Z,1001.18
2022-11-28T08:40:34.402Z,1001.19
2022-11-28T08:41:14.907Z,1001.21
2022-11-28T08:41:55.405Z,1001.19
2022-11-28T08:42:36.012Z,1001.21
2022-11-28T08:43:18.477Z,1001.23
2022-11-28T08:43:59.111Z,1001.2
2022-11-28T08:44:39.565Z,1001.19
2022-11-28T08:45:20.199Z,1001.19
2022-11-28T08:46:00.724Z,1001.22
2022-11-28T08:46:41.180Z,1001.17
2022-11-28T08:47:21.739Z,1001.18
2022-11-28T08:48:02.315Z,1001.16
2022-11-28T08:48:42.862Z,1001.19
2022-11-28T08:49:23.392Z,1001.17
2022-11-28T08:50:03.958Z,1001.12
2022-11-28T08:50:47.912Z,1001.15
2022-11-28T08:51:26.334Z,1001.12
2022-11-28T08:52:46.756Z,1001.16
2022-11-28T08:53:27.300Z,1001.15
2022-11-28T08:54:07.830Z,1001.15
2022-11-28T08:54:48.987Z,1001.15
2022-11-28T08:55:32.035Z,1001.13
2022-11-28T08:56:10.106Z,1001.12
2022-11-28T08:56:50.655Z,1001.15
2022-11-28T08:57:31.166Z,1001.16
2022-11-28T08:58:11.687Z,1001.14
2022-11-28T08:59:01.028Z,1001.17
2022-11-28T08:59:41.757Z,1001.25
2022-11-28T09:02:40.320Z,1001.2
2022-11-28T09:03:23.210Z,1001.17
2022-11-28T09:04:03.858Z,1001.21
2022-11-28T09:04:44.457Z,1001.17
2022-11-28T09:05:25.083Z,1001.21
2022-11-28T09:06:05.378Z,1001.2
2022-11-28T09:06:46.021Z,1001.23
2022-11-28T09:07:26.653Z,1001.18
2022-11-28T09:08:10.325Z,1001.2
2022-11-28T09:08:47.836Z,1001.19
2022-11-28T09:09:32.561Z,1001.21
2022-11-28T09:10:09.644Z,1001.18
2022-11-28T09:10:50.110Z,1001.21
2022-11-28T09:14:35.159Z,1001.26
2022-11-28T09:15:16.398Z,1001.27
2022-11-28T09:15:57.843Z,1001.29
2022-11-28T09:16:38.420Z,1001.28
2022-11-28T09:17:19.048Z,1001.32
2022-11-28T09:17:59.575Z,1001.28
2022-11-28T09:18:40.106Z,1001.29
2022-11-28T09:19:20.702Z,1001.28
2022-11-28T09:20:01.222Z,1001.34
2022-11-28T09:20:42.632Z,1001.3
2022-11-28T09:21:23.863Z,1001.34
2022-11-28T09:22:05.407Z,1001.34
2022-11-28T09:22:46.001Z,1001.33
2022-11-28T09:23:26.536Z,1001.37
2022-11-28T09:26:40.496Z,1001.35
2022-11-28T09:27:20.940Z,1001.35
2022-11-28T09:28:01.988Z,1001.37
2022-11-28T09:28:42.506Z,1001.4
2022-11-28T09:29:23.021Z,1001.41
2022-11-28T09:30:03.590Z,1001.41
2022-11-28T09:30:44.199Z,1001.41
2022-11-28T09:31:24.774Z,1001.4
2022-11-28T09:32:05.272Z,1001.39
2022-11-28T09:32:45.796Z,1001.36
2022-11-28T09:33:26.271Z,1001.38
2022-11-28T09:34:06.891Z,1001.39
2022-11-28T09:34:47.444Z,1001.34
2022-11-28T09:35:27.998Z,1001.39
2022-11-28T09:36:08.593Z,1001.39
2022-11-28T09:36:50.075Z,1001.34
2022-11-28T09:37:30.560Z,1001.34
2022-11-28T09:38:11.025Z,1001.37
2022-11-28T09:38:51.689Z,1001.36
2022-11-28T09:39:43.830Z,1001.37
2022-11-28T09:40:13.833Z,1001.36
2022-11-28T09:40:53.320Z,1001.37
2022-11-28T09:41:33.883Z,1001.34
2022-11-28T09:42:14.528Z,1001.36
2022-11-28T09:42:55.100Z,1001.38
2022-11-28T09:43:35.719Z,1001.41
2022-11-28T09:44:16.319Z,1001.41
2022-11-28T09:44:56.994Z,1001.44
2022-11-28T09:45:38.257Z,1001.42
2022-11-28T09:46:18.913Z,1001.45
2022-11-28T09:46:59.829Z,1001.45
2022-11-28T09:47:39.968Z,1001.42
2022-11-28T09:49:41.543Z,1001.44
2022-11-28T09:50:21.626Z,1001.45
2022-11-28T09:51:02.206Z,1001.41
2022-11-28T09:51:42.811Z,1001.43
2022-11-28T09:52:23.532Z,1001.41
2022-11-28T09:53:44.830Z,1001.45
2022-11-28T09:54:25.369Z,1001.41
2022-11-28T09:55:05.903Z,1001.44
2022-11-28T09:55:46.472Z,1001.41
2022-11-28T09:56:28.116Z,1001.41
2022-11-28T09:58:57.554Z,1001.37
2022-11-28T09:59:38.337Z,1001.39
2022-11-28T10:00:19.108Z,1001.41
2022-11-28T10:00:59.505Z,1001.4
2022-11-28T10:01:40.840Z,1001.42
2022-11-28T10:02:21.524Z,1001.42
2022-11-28T10:04:19.743Z,1001.4
2022-11-28T10:05:00.305Z,1001.38
2022-11-28T10:05:40.913Z,1001.37
2022-11-28T10:06:22.533Z,1001.35
2022-11-28T10:07:03.260Z,1001.39
2022-11-28T10:07:43.892Z,1001.37
2022-11-28T10:08:24.531Z,1001.35
2022-11-28T10:09:05.074Z,1001.39
2022-11-28T10:09:45.720Z,1001.39
2022-11-28T10:10:27.008Z,1001.37
2022-11-28T10:11:07.610Z,1001.37
2022-11-28T10:11:48.149Z,1001.36
2022-11-28T10:12:28.706Z,1001.35
2022-11-28T10:13:09.265Z,1001.36